sensor_id;sensor_type;location;lat;lon;timestamp;temperature;humidity
30572;DHT22;17348;50.948;10.696;2023-06-14T00:01:16;15.00;99.90
30572;DHT22;17348;50.948;10.696;2023-06-14T00:04:18;15.00;99.90
30572;DHT22;17348;50.948;10.696;2023-06-14T00:07:34;15.00;99.90
30572;DHT22;17348;50.948;10.696;2023-06-14T00:10:38;14.90;99.90
30572;DHT22;17348;50.948;10.696;2023-06-14T00:13:42;14.90;99.90
30572;DHT22;17348;50.948;10.696;2023-06-14T00:16:44;14.90;99.90
30572;DHT22;17348;50.948;10.696;2023-06-14T00:19:47;14.80;99.90
30572;DHT22;17348;50.948;10.696;2023-06-14T00:22:49;14.80;99.90
30572;DHT22;17348;50.948;10.696;2023-06-14T00:25:54;14.70;99.90
30572;DHT22;17348;50.948;10.696;2023-06-14T00:28:56;14.70;99.90
30572;DHT22;17348;50.948;10.696;2023-06-14T00:31:59;14.70;99.90
30572;DHT22;17348;50.948;10.696;2023-06-14T00:35:01;14.60;99.90
30572;DHT22;17348;50.948;10.696;2023-06-14T00:38:03;14.70;99.90
30572;DHT22;17348;50.948;10.696;2023-06-14T00:41:07;14.60;99.90
30572;DHT22;17348;50.948;10.696;2023-06-14T00:44:09;14.60;99.90
30572;DHT22;17348;50.948;10.696;2023-06-14T00:47:12;14.60;99.90
30572;DHT22;17348;50.948;10.696;2023-06-14T00:50:14;14.50;99.90
30572;DHT22;17348;50.948;10.696;2023-06-14T00:53:17;14.50;99.90
30572;DHT22;17348;50.948;10.696;2023-06-14T00:56:20;14.50;99.90
30572;DHT22;17348;50.948;10.696;2023-06-14T00:59:24;14.40;99.90
30572;DHT22;17348;50.948;10.696;2023-06-14T01:02:27;14.30;99.90
30572;DHT22;17348;50.948;10.696;2023-06-14T01:05:29;14.20;99.90
30572;DHT22;17348;50.948;10.696;2023-06-14T01:08:41;14.20;99.90
30572;DHT22;17348;50.948;10.696;2023-06-14T01:11:54;14.10;99.90
30572;DHT22;17348;50.948;10.696;2023-06-14T01:15:01;14.00;99.90
30572;DHT22;17348;50.948;10.696;2023-06-14T01:18:04;14.00;99.90
30572;DHT22;17348;50.948;10.696;2023-06-14T01:21:20;14.00;99.90
30572;DHT22;17348;50.948;10.696;2023-06-14T01:24:24;13.90;99.90
30572;DHT22;17348;50.948;10.696;2023-06-14T01:27:33;13.90;99.90
30572;DHT22;17348;50.948;10.696;2023-06-14T01:30:40;13.80;99.90
30572;DHT22;17348;50.948;10.696;2023-06-14T01:33:46;13.80;99.90
30572;DHT22;17348;50.948;10.696;2023-06-14T01:36:50;13.70;99.90
30572;DHT22;17348;50.948;10.696;2023-06-14T01:39:53;13.70;99.90
30572;DHT22;17348;50.948;10.696;2023-06-14T01:42:57;13.60;99.90
30572;DHT22;17348;50.948;10.696;2023-06-14T01:46:00;13.50;99.90
30572;DHT22;17348;50.948;10.696;2023-06-14T01:49:04;13.50;99.90
30572;DHT22;17348;50.948;10.696;2023-06-14T01:52:07;13.50;99.90
30572;DHT22;17348;50.948;10.696;2023-06-14T01:55:12;13.40;99.90
30572;DHT22;17348;50.948;10.696;2023-06-14T01:58:14;13.30;99.90
30572;DHT22;17348;50.948;10.696;2023-06-14T02:01:18;13.20;99.90
30572;DHT22;17348;50.948;10.696;2023-06-14T02:04:22;13.20;99.90
30572;DHT22;17348;50.948;10.696;2023-06-14T02:07:24;13.10;99.90
30572;DHT22;17348;50.948;10.696;2023-06-14T02:10:28;13.10;99.90
30572;DHT22;17348;50.948;10.696;2023-06-14T02:13:30;13.00;99.90
30572;DHT22;17348;50.948;10.696;2023-06-14T02:16:32;13.00;99.90
30572;DHT22;17348;50.948;10.696;2023-06-14T02:19:36;12.90;99.90
30572;DHT22;17348;50.948;10.696;2023-06-14T02:22:39;12.90;99.90
30572;DHT22;17348;50.948;10.696;2023-06-14T02:25:43;12.90;99.90
30572;DHT22;17348;50.948;10.696;2023-06-14T02:28:47;12.80;99.90
30572;DHT22;17348;50.948;10.696;2023-06-14T02:31:49;12.70;99.90
30572;DHT22;17348;50.948;10.696;2023-06-14T02:34:51;12.70;99.90
30572;DHT22;17348;50.948;10.696;2023-06-14T02:37:54;12.60;99.90
30572;DHT22;17348;50.948;10.696;2023-06-14T02:40:58;12.60;99.90
30572;DHT22;17348;50.948;10.696;2023-06-14T02:44:02;12.50;99.90
30572;DHT22;17348;50.948;10.696;2023-06-14T02:47:05;12.50;99.90
30572;DHT22;17348;50.948;10.696;2023-06-14T02:50:08;12.50;99.90
30572;DHT22;17348;50.948;10.696;2023-06-14T02:53:10;12.40;99.90
30572;DHT22;17348;50.948;10.696;2023-06-14T02:56:15;12.40;99.90
30572;DHT22;17348;50.948;10.696;2023-06-14T02:59:18;12.30;99.90
30572;DHT22;17348;50.948;10.696;2023-06-14T03:02:22;12.30;99.90
30572;DHT22;17348;50.948;10.696;2023-06-14T03:05:24;12.20;99.90
30572;DHT22;17348;50.948;10.696;2023-06-14T03:08:29;12.10;99.90
30572;DHT22;17348;50.948;10.696;2023-06-14T03:11:33;12.10;99.90
30572;DHT22;17348;50.948;10.696;2023-06-14T03:14:36;12.10;99.90
30572;DHT22;17348;50.948;10.696;2023-06-14T03:17:39;12.10;99.90
30572;DHT22;17348;50.948;10.696;2023-06-14T03:20:41;12.10;99.90
30572;DHT22;17348;50.948;10.696;2023-06-14T03:23:46;12.10;99.90
30572;DHT22;17348;50.948;10.696;2023-06-14T03:26:50;12.10;99.90
30572;DHT22;17348;50.948;10.696;2023-06-14T03:29:52;12.10;99.90
30572;DHT22;17348;50.948;10.696;2023-06-14T03:32:57;12.10;99.90
30572;DHT22;17348;50.948;10.696;2023-06-14T03:36:02;12.20;99.90
30572;DHT22;17348;50.948;10.696;2023-06-14T03:39:04;12.20;99.90
30572;DHT22;17348;50.948;10.696;2023-06-14T03:42:09;12.30;99.90
30572;DHT22;17348;50.948;10.696;2023-06-14T03:45:11;12.40;99.90
30572;DHT22;17348;50.948;10.696;2023-06-14T03:48:13;12.60;99.90
30572;DHT22;17348;50.948;10.696;2023-06-14T03:51:16;12.90;99.90
30572;DHT22;17348;50.948;10.696;2023-06-14T03:54:19;12.90;99.90
30572;DHT22;17348;50.948;10.696;2023-06-14T03:57:24;12.90;99.90
30572;DHT22;17348;50.948;10.696;2023-06-14T04:00:26;12.90;99.90
30572;DHT22;17348;50.948;10.696;2023-06-14T04:03:28;12.80;99.90
30572;DHT22;17348;50.948;10.696;2023-06-14T04:06:31;12.80;99.90
30572;DHT22;17348;50.948;10.696;2023-06-14T04:09:34;12.80;99.90
30572;DHT22;17348;50.948;10.696;2023-06-14T04:12:37;12.80;99.90
30572;DHT22;17348;50.948;10.696;2023-06-14T04:15:40;12.90;99.90
30572;DHT22;17348;50.948;10.696;2023-06-14T04:18:44;12.90;99.90
30572;DHT22;17348;50.948;10.696;2023-06-14T04:21:47;12.90;99.90
30572;DHT22;17348;50.948;10.696;2023-06-14T04:24:50;13.00;99.90
30572;DHT22;17348;50.948;10.696;2023-06-14T04:27:55;13.00;99.90
30572;DHT22;17348;50.948;10.696;2023-06-14T04:30:58;13.10;99.90
30572;DHT22;17348;50.948;10.696;2023-06-14T04:34:02;13.20;99.90
30572;DHT22;17348;50.948;10.696;2023-06-14T04:37:06;13.20;99.90
30572;DHT22;17348;50.948;10.696;2023-06-14T04:40:10;13.20;99.90
30572;DHT22;17348;50.948;10.696;2023-06-14T04:43:14;13.10;99.90
30572;DHT22;17348;50.948;10.696;2023-06-14T04:46:18;13.20;99.90
30572;DHT22;17348;50.948;10.696;2023-06-14T04:49:21;13.20;99.90
30572;DHT22;17348;50.948;10.696;2023-06-14T04:52:24;13.20;99.90
30572;DHT22;17348;50.948;10.696;2023-06-14T04:55:27;13.20;99.90
30572;DHT22;17348;50.948;10.696;2023-06-14T04:58:31;13.20;99.90
30572;DHT22;17348;50.948;10.696;2023-06-14T05:01:34;13.30;99.90
30572;DHT22;17348;50.948;10.696;2023-06-14T05:04:36;13.30;99.90
30572;DHT22;17348;50.948;10.696;2023-06-14T05:07:40;13.30;99.90
30572;DHT22;17348;50.948;10.696;2023-06-14T05:10:42;13.40;99.90
30572;DHT22;17348;50.948;10.696;2023-06-14T05:13:46;13.40;99.90
30572;DHT22;17348;50.948;10.696;2023-06-14T05:16:48;13.40;99.90
30572;DHT22;17348;50.948;10.696;2023-06-14T05:19:51;13.50;99.90
30572;DHT22;17348;50.948;10.696;2023-06-14T05:22:54;13.50;99.90
30572;DHT22;17348;50.948;10.696;2023-06-14T05:25:57;13.60;99.90
30572;DHT22;17348;50.948;10.696;2023-06-14T05:29:01;13.60;99.90
30572;DHT22;17348;50.948;10.696;2023-06-14T05:32:04;13.70;99.90
30572;DHT22;17348;50.948;10.696;2023-06-14T05:35:07;13.70;99.90
30572;DHT22;17348;50.948;10.696;2023-06-14T05:38:10;13.70;99.90
30572;DHT22;17348;50.948;10.696;2023-06-14T05:41:12;13.70;99.90
30572;DHT22;17348;50.948;10.696;2023-06-14T05:44:16;13.80;99.90
30572;DHT22;17348;50.948;10.696;2023-06-14T05:47:18;13.80;99.90
30572;DHT22;17348;50.948;10.696;2023-06-14T05:50:21;13.90;99.90
30572;DHT22;17348;50.948;10.696;2023-06-14T05:53:23;14.00;99.90
30572;DHT22;17348;50.948;10.696;2023-06-14T05:56:26;14.00;99.90
30572;DHT22;17348;50.948;10.696;2023-06-14T05:59:29;14.00;99.90
30572;DHT22;17348;50.948;10.696;2023-06-14T06:02:31;14.10;99.90
30572;DHT22;17348;50.948;10.696;2023-06-14T06:05:34;14.10;99.90
30572;DHT22;17348;50.948;10.696;2023-06-14T06:08:36;14.20;99.90
30572;DHT22;17348;50.948;10.696;2023-06-14T06:11:39;14.10;99.90
30572;DHT22;17348;50.948;10.696;2023-06-14T06:14:42;14.20;99.90
30572;DHT22;17348;50.948;10.696;2023-06-14T06:17:45;14.30;99.90
30572;DHT22;17348;50.948;10.696;2023-06-14T06:20:48;14.40;99.90
30572;DHT22;17348;50.948;10.696;2023-06-14T06:23:51;14.40;99.90
30572;DHT22;17348;50.948;10.696;2023-06-14T06:26:53;14.40;99.90
30572;DHT22;17348;50.948;10.696;2023-06-14T06:29:57;14.40;99.90
30572;DHT22;17348;50.948;10.696;2023-06-14T06:32:59;14.50;99.90
30572;DHT22;17348;50.948;10.696;2023-06-14T06:36:01;14.50;99.90
30572;DHT22;17348;50.948;10.696;2023-06-14T06:39:04;14.60;99.90
30572;DHT22;17348;50.948;10.696;2023-06-14T06:42:12;14.70;99.90
30572;DHT22;17348;50.948;10.696;2023-06-14T06:45:16;14.80;99.90
30572;DHT22;17348;50.948;10.696;2023-06-14T06:48:18;14.80;99.90
30572;DHT22;17348;50.948;10.696;2023-06-14T06:51:20;14.80;99.90
30572;DHT22;17348;50.948;10.696;2023-06-14T06:54:23;14.90;99.90
30572;DHT22;17348;50.948;10.696;2023-06-14T06:57:25;14.90;99.90
30572;DHT22;17348;50.948;10.696;2023-06-14T07:00:28;15.00;99.90
30572;DHT22;17348;50.948;10.696;2023-06-14T07:03:31;15.20;99.90
30572;DHT22;17348;50.948;10.696;2023-06-14T07:06:33;15.20;99.90
30572;DHT22;17348;50.948;10.696;2023-06-14T07:09:36;15.30;99.90
30572;DHT22;17348;50.948;10.696;2023-06-14T07:12:38;15.40;99.90
30572;DHT22;17348;50.948;10.696;2023-06-14T07:15:42;15.60;99.90
30572;DHT22;17348;50.948;10.696;2023-06-14T07:18:44;15.70;99.90
30572;DHT22;17348;50.948;10.696;2023-06-14T07:21:47;15.90;99.90
30572;DHT22;17348;50.948;10.696;2023-06-14T07:24:49;15.90;99.90
30572;DHT22;17348;50.948;10.696;2023-06-14T07:27:51;15.90;99.90
30572;DHT22;17348;50.948;10.696;2023-06-14T07:30:55;15.80;99.90
30572;DHT22;17348;50.948;10.696;2023-06-14T07:33:58;16.10;99.90
30572;DHT22;17348;50.948;10.696;2023-06-14T07:37:00;16.30;99.90
30572;DHT22;17348;50.948;10.696;2023-06-14T07:40:03;17.20;99.90
30572;DHT22;17348;50.948;10.696;2023-06-14T07:43:07;17.60;99.90
30572;DHT22;17348;50.948;10.696;2023-06-14T07:46:11;18.40;99.90
30572;DHT22;17348;50.948;10.696;2023-06-14T07:49:14;18.10;99.90
30572;DHT22;17348;50.948;10.696;2023-06-14T07:52:16;17.80;99.90
30572;DHT22;17348;50.948;10.696;2023-06-14T07:55:18;17.60;99.90
30572;DHT22;17348;50.948;10.696;2023-06-14T07:58:21;17.40;99.90
30572;DHT22;17348;50.948;10.696;2023-06-14T08:01:24;17.20;99.90
30572;DHT22;17348;50.948;10.696;2023-06-14T08:04:28;17.10;99.90
30572;DHT22;17348;50.948;10.696;2023-06-14T08:07:32;17.10;99.90
30572;DHT22;17348;50.948;10.696;2023-06-14T08:10:34;17.00;99.90
30572;DHT22;17348;50.948;10.696;2023-06-14T08:13:36;17.00;99.90
30572;DHT22;17348;50.948;10.696;2023-06-14T08:16:40;17.10;99.90
30572;DHT22;17348;50.948;10.696;2023-06-14T08:19:42;17.20;99.90
30572;DHT22;17348;50.948;10.696;2023-06-14T08:22:44;17.20;99.90
30572;DHT22;17348;50.948;10.696;2023-06-14T08:25:49;17.30;99.90
30572;DHT22;17348;50.948;10.696;2023-06-14T08:28:51;17.30;99.90
30572;DHT22;17348;50.948;10.696;2023-06-14T08:31:55;17.30;99.90
30572;DHT22;17348;50.948;10.696;2023-06-14T08:34:57;17.20;99.90
30572;DHT22;17348;50.948;10.696;2023-06-14T08:38:00;17.30;99.90
30572;DHT22;17348;50.948;10.696;2023-06-14T08:41:03;17.30;99.90
30572;DHT22;17348;50.948;10.696;2023-06-14T08:44:06;17.50;99.90
30572;DHT22;17348;50.948;10.696;2023-06-14T08:47:10;17.70;99.90
30572;DHT22;17348;50.948;10.696;2023-06-14T08:50:14;17.90;99.90
30572;DHT22;17348;50.948;10.696;2023-06-14T08:53:17;18.00;99.90
30572;DHT22;17348;50.948;10.696;2023-06-14T08:56:21;18.10;99.90
30572;DHT22;17348;50.948;10.696;2023-06-14T08:59:27;18.10;99.90
30572;DHT22;17348;50.948;10.696;2023-06-14T09:02:30;18.10;99.90
30572;DHT22;17348;50.948;10.696;2023-06-14T09:05:36;18.20;99.90
30572;DHT22;17348;50.948;10.696;2023-06-14T09:08:40;18.40;99.90
30572;DHT22;17348;50.948;10.696;2023-06-14T09:11:42;18.50;99.90
30572;DHT22;17348;50.948;10.696;2023-06-14T09:14:45;18.60;99.90
30572;DHT22;17348;50.948;10.696;2023-06-14T09:17:49;18.60;99.90
30572;DHT22;17348;50.948;10.696;2023-06-14T09:20:53;18.70;99.90
30572;DHT22;17348;50.948;10.696;2023-06-14T09:23:55;18.70;99.90
30572;DHT22;17348;50.948;10.696;2023-06-14T09:26:58;18.70;99.90
30572;DHT22;17348;50.948;10.696;2023-06-14T09:30:00;18.60;99.90
30572;DHT22;17348;50.948;10.696;2023-06-14T09:33:04;18.80;99.90
30572;DHT22;17348;50.948;10.696;2023-06-14T09:36:10;19.10;99.90
30572;DHT22;17348;50.948;10.696;2023-06-14T09:39:17;19.30;99.90
30572;DHT22;17348;50.948;10.696;2023-06-14T09:42:19;19.40;99.90
30572;DHT22;17348;50.948;10.696;2023-06-14T09:45:22;19.70;99.90
30572;DHT22;17348;50.948;10.696;2023-06-14T09:48:26;19.90;99.90
30572;DHT22;17348;50.948;10.696;2023-06-14T09:51:29;20.00;99.90
30572;DHT22;17348;50.948;10.696;2023-06-14T09:54:32;19.90;99.90
30572;DHT22;17348;50.948;10.696;2023-06-14T09:57:36;20.00;99.90
30572;DHT22;17348;50.948;10.696;2023-06-14T10:00:40;20.00;99.90
30572;DHT22;17348;50.948;10.696;2023-06-14T10:03:45;20.00;99.90
30572;DHT22;17348;50.948;10.696;2023-06-14T10:06:51;20.00;99.90
30572;DHT22;17348;50.948;10.696;2023-06-14T10:09:54;20.20;99.90
30572;DHT22;17348;50.948;10.696;2023-06-14T10:12:56;20.30;99.90
30572;DHT22;17348;50.948;10.696;2023-06-14T10:16:07;20.40;99.90
30572;DHT22;17348;50.948;10.696;2023-06-14T10:19:18;20.50;99.90
30572;DHT22;17348;50.948;10.696;2023-06-14T10:22:25;20.70;99.90
30572;DHT22;17348;50.948;10.696;2023-06-14T10:25:29;20.80;99.80
30572;DHT22;17348;50.948;10.696;2023-06-14T10:28:31;20.80;99.50
30572;DHT22;17348;50.948;10.696;2023-06-14T10:31:42;20.80;98.70
30572;DHT22;17348;50.948;10.696;2023-06-14T10:34:53;20.90;99.00
30572;DHT22;17348;50.948;10.696;2023-06-14T10:38:06;20.90;99.00
30572;DHT22;17348;50.948;10.696;2023-06-14T10:41:09;20.90;98.70
30572;DHT22;17348;50.948;10.696;2023-06-14T10:44:40;21.00;98.50
30572;DHT22;17348;50.948;10.696;2023-06-14T10:47:42;21.20;98.20
30572;DHT22;17348;50.948;10.696;2023-06-14T10:50:47;21.30;97.20
30572;DHT22;17348;50.948;10.696;2023-06-14T10:53:51;21.40;97.30
30572;DHT22;17348;50.948;10.696;2023-06-14T10:56:53;21.50;96.90
30572;DHT22;17348;50.948;10.696;2023-06-14T10:59:56;21.50;96.20
30572;DHT22;17348;50.948;10.696;2023-06-14T11:03:30;21.40;95.90
30572;DHT22;17348;50.948;10.696;2023-06-14T11:06:47;21.60;95.90
30572;DHT22;17348;50.948;10.696;2023-06-14T11:10:05;21.80;95.90
30572;DHT22;17348;50.948;10.696;2023-06-14T11:13:12;21.70;96.00
30572;DHT22;17348;50.948;10.696;2023-06-14T11:16:17;21.80;95.20
30572;DHT22;17348;50.948;10.696;2023-06-14T11:19:19;21.90;94.40
30572;DHT22;17348;50.948;10.696;2023-06-14T11:22:24;22.00;94.40
30572;DHT22;17348;50.948;10.696;2023-06-14T11:25:27;22.10;94.70
30572;DHT22;17348;50.948;10.696;2023-06-14T11:28:37;22.40;93.60
30572;DHT22;17348;50.948;10.696;2023-06-14T11:31:43;22.70;93.70
30572;DHT22;17348;50.948;10.696;2023-06-14T11:34:46;22.50;93.60
30572;DHT22;17348;50.948;10.696;2023-06-14T11:37:54;22.30;93.30
30572;DHT22;17348;50.948;10.696;2023-06-14T11:41:00;22.10;94.10
30572;DHT22;17348;50.948;10.696;2023-06-14T11:44:03;22.00;93.80
30572;DHT22;17348;50.948;10.696;2023-06-14T11:47:06;22.10;94.10
30572;DHT22;17348;50.948;10.696;2023-06-14T11:50:09;22.20;92.50
30572;DHT22;17348;50.948;10.696;2023-06-14T11:53:14;22.40;92.00
30572;DHT22;17348;50.948;10.696;2023-06-14T11:56:18;22.60;92.20
30572;DHT22;17348;50.948;10.696;2023-06-14T11:59:20;22.50;92.70
30572;DHT22;17348;50.948;10.696;2023-06-14T12:02:22;22.50;92.80
30572;DHT22;17348;50.948;10.696;2023-06-14T12:05:26;22.40;91.40
30572;DHT22;17348;50.948;10.696;2023-06-14T12:08:34;22.50;91.50
30572;DHT22;17348;50.948;10.696;2023-06-14T12:11:39;22.80;91.60
30572;DHT22;17348;50.948;10.696;2023-06-14T12:14:42;22.90;91.60
30572;DHT22;17348;50.948;10.696;2023-06-14T12:17:44;22.90;91.60
30572;DHT22;17348;50.948;10.696;2023-06-14T12:20:49;23.10;91.20
30572;DHT22;17348;50.948;10.696;2023-06-14T12:23:53;23.20;91.30
30572;DHT22;17348;50.948;10.696;2023-06-14T12:26:57;23.20;90.60
30572;DHT22;17348;50.948;10.696;2023-06-14T12:30:02;23.20;90.70
30572;DHT22;17348;50.948;10.696;2023-06-14T12:33:06;23.30;90.60
30572;DHT22;17348;50.948;10.696;2023-06-14T12:36:09;23.20;90.40
30572;DHT22;17348;50.948;10.696;2023-06-14T12:39:13;23.10;90.70
30572;DHT22;17348;50.948;10.696;2023-06-14T12:42:15;23.10;90.60
30572;DHT22;17348;50.948;10.696;2023-06-14T12:45:18;23.20;90.70
30572;DHT22;17348;50.948;10.696;2023-06-14T12:48:20;23.20;91.10
30572;DHT22;17348;50.948;10.696;2023-06-14T12:51:23;23.10;91.10
30572;DHT22;17348;50.948;10.696;2023-06-14T12:54:27;22.90;90.70
30572;DHT22;17348;50.948;10.696;2023-06-14T12:57:30;22.90;90.40
30572;DHT22;17348;50.948;10.696;2023-06-14T13:00:32;23.00;90.60
30572;DHT22;17348;50.948;10.696;2023-06-14T13:03:34;23.20;90.20
30572;DHT22;17348;50.948;10.696;2023-06-14T13:06:36;23.20;90.10
30572;DHT22;17348;50.948;10.696;2023-06-14T13:09:40;23.30;89.70
30572;DHT22;17348;50.948;10.696;2023-06-14T13:12:43;23.20;89.70
30572;DHT22;17348;50.948;10.696;2023-06-14T13:15:46;23.00;89.20
30572;DHT22;17348;50.948;10.696;2023-06-14T13:18:49;22.90;89.80
30572;DHT22;17348;50.948;10.696;2023-06-14T13:21:51;23.10;90.00
30572;DHT22;17348;50.948;10.696;2023-06-14T13:24:55;23.10;88.60
30572;DHT22;17348;50.948;10.696;2023-06-14T13:27:57;23.10;89.40
30572;DHT22;17348;50.948;10.696;2023-06-14T13:31:00;23.20;89.50
30572;DHT22;17348;50.948;10.696;2023-06-14T13:34:03;23.20;88.80
30572;DHT22;17348;50.948;10.696;2023-06-14T13:37:05;23.20;89.20
30572;DHT22;17348;50.948;10.696;2023-06-14T13:40:10;23.10;89.00
30572;DHT22;17348;50.948;10.696;2023-06-14T13:43:13;22.90;89.30
30572;DHT22;17348;50.948;10.696;2023-06-14T13:46:15;22.70;90.20
30572;DHT22;17348;50.948;10.696;2023-06-14T13:49:17;22.60;90.40
30572;DHT22;17348;50.948;10.696;2023-06-14T13:52:20;22.70;90.10
30572;DHT22;17348;50.948;10.696;2023-06-14T13:55:23;22.80;89.40
30572;DHT22;17348;50.948;10.696;2023-06-14T13:58:26;22.80;89.70
30572;DHT22;17348;50.948;10.696;2023-06-14T14:01:28;23.00;89.90
30572;DHT22;17348;50.948;10.696;2023-06-14T14:04:31;22.80;90.10
30572;DHT22;17348;50.948;10.696;2023-06-14T14:07:33;22.70;90.50
30572;DHT22;17348;50.948;10.696;2023-06-14T14:10:38;22.40;90.80
30572;DHT22;17348;50.948;10.696;2023-06-14T14:13:40;22.50;91.00
30572;DHT22;17348;50.948;10.696;2023-06-14T14:16:43;22.40;91.30
30572;DHT22;17348;50.948;10.696;2023-06-14T14:19:45;22.10;90.80
30572;DHT22;17348;50.948;10.696;2023-06-14T14:22:48;21.90;91.20
30572;DHT22;17348;50.948;10.696;2023-06-14T14:25:51;21.80;91.40
30572;DHT22;17348;50.948;10.696;2023-06-14T14:28:54;21.80;91.80
30572;DHT22;17348;50.948;10.696;2023-06-14T14:31:56;22.00;91.10
30572;DHT22;17348;50.948;10.696;2023-06-14T14:34:59;22.30;91.20
30572;DHT22;17348;50.948;10.696;2023-06-14T14:38:01;22.10;91.10
30572;DHT22;17348;50.948;10.696;2023-06-14T14:41:05;22.30;90.90
30572;DHT22;17348;50.948;10.696;2023-06-14T14:44:08;22.40;90.70
30572;DHT22;17348;50.948;10.696;2023-06-14T14:47:11;22.40;91.20
30572;DHT22;17348;50.948;10.696;2023-06-14T14:50:14;22.60;91.50
30572;DHT22;17348;50.948;10.696;2023-06-14T14:53:17;22.70;91.10
30572;DHT22;17348;50.948;10.696;2023-06-14T14:56:21;22.90;91.20
30572;DHT22;17348;50.948;10.696;2023-06-14T14:59:24;23.10;90.60
30572;DHT22;17348;50.948;10.696;2023-06-14T15:02:26;22.80;88.50
30572;DHT22;17348;50.948;10.696;2023-06-14T15:05:29;22.90;89.40
30572;DHT22;17348;50.948;10.696;2023-06-14T15:08:31;23.10;89.80
30572;DHT22;17348;50.948;10.696;2023-06-14T15:11:34;23.30;89.80
30572;DHT22;17348;50.948;10.696;2023-06-14T15:14:37;23.30;89.00
30572;DHT22;17348;50.948;10.696;2023-06-14T15:17:39;23.20;87.60
30572;DHT22;17348;50.948;10.696;2023-06-14T15:20:42;22.90;87.00
30572;DHT22;17348;50.948;10.696;2023-06-14T15:23:45;22.60;87.40
30572;DHT22;17348;50.948;10.696;2023-06-14T15:26:48;22.40;88.40
30572;DHT22;17348;50.948;10.696;2023-06-14T15:29:51;22.20;88.80
30572;DHT22;17348;50.948;10.696;2023-06-14T15:32:54;22.50;89.30
30572;DHT22;17348;50.948;10.696;2023-06-14T15:35:56;22.80;89.50
30572;DHT22;17348;50.948;10.696;2023-06-14T15:38:58;22.80;90.60
30572;DHT22;17348;50.948;10.696;2023-06-14T15:42:03;22.60;91.40
30572;DHT22;17348;50.948;10.696;2023-06-14T15:45:07;22.50;91.10
30572;DHT22;17348;50.948;10.696;2023-06-14T15:48:09;22.70;91.10
30572;DHT22;17348;50.948;10.696;2023-06-14T15:51:12;22.80;90.30
30572;DHT22;17348;50.948;10.696;2023-06-14T15:54:14;22.90;90.40
30572;DHT22;17348;50.948;10.696;2023-06-14T15:57:18;23.00;90.30
30572;DHT22;17348;50.948;10.696;2023-06-14T16:00:21;23.00;90.00
30572;DHT22;17348;50.948;10.696;2023-06-14T16:03:23;23.10;90.30
30572;DHT22;17348;50.948;10.696;2023-06-14T16:06:26;23.10;89.80
30572;DHT22;17348;50.948;10.696;2023-06-14T16:09:28;23.20;90.20
30572;DHT22;17348;50.948;10.696;2023-06-14T16:12:32;23.20;90.40
30572;DHT22;17348;50.948;10.696;2023-06-14T16:15:34;22.80;92.10
30572;DHT22;17348;50.948;10.696;2023-06-14T16:18:37;22.50;92.90
30572;DHT22;17348;50.948;10.696;2023-06-14T16:21:39;22.20;93.30
30572;DHT22;17348;50.948;10.696;2023-06-14T16:24:41;22.00;93.70
30572;DHT22;17348;50.948;10.696;2023-06-14T16:27:45;21.90;94.40
30572;DHT22;17348;50.948;10.696;2023-06-14T16:30:47;21.80;94.10
30572;DHT22;17348;50.948;10.696;2023-06-14T16:33:50;21.60;94.40
30572;DHT22;17348;50.948;10.696;2023-06-14T16:36:57;21.60;94.80
30572;DHT22;17348;50.948;10.696;2023-06-14T16:39:59;21.70;94.50
30572;DHT22;17348;50.948;10.696;2023-06-14T16:43:03;21.90;94.40
30572;DHT22;17348;50.948;10.696;2023-06-14T16:46:05;21.90;94.30
30572;DHT22;17348;50.948;10.696;2023-06-14T16:49:08;21.90;94.30
30572;DHT22;17348;50.948;10.696;2023-06-14T16:52:10;21.60;94.50
30572;DHT22;17348;50.948;10.696;2023-06-14T16:55:12;21.40;95.00
30572;DHT22;17348;50.948;10.696;2023-06-14T16:58:16;21.40;95.30
30572;DHT22;17348;50.948;10.696;2023-06-14T17:01:18;21.50;95.30
30572;DHT22;17348;50.948;10.696;2023-06-14T17:04:21;21.60;95.40
30572;DHT22;17348;50.948;10.696;2023-06-14T17:07:24;21.70;95.20
30572;DHT22;17348;50.948;10.696;2023-06-14T17:10:26;21.80;95.10
30572;DHT22;17348;50.948;10.696;2023-06-14T17:13:30;21.80;95.00
30572;DHT22;17348;50.948;10.696;2023-06-14T17:16:32;21.90;95.20
30572;DHT22;17348;50.948;10.696;2023-06-14T17:19:34;22.00;94.90
30572;DHT22;17348;50.948;10.696;2023-06-14T17:22:38;22.10;94.50
30572;DHT22;17348;50.948;10.696;2023-06-14T17:25:42;22.20;94.40
30572;DHT22;17348;50.948;10.696;2023-06-14T17:28:45;22.10;94.00
30572;DHT22;17348;50.948;10.696;2023-06-14T17:31:48;22.00;94.10
30572;DHT22;17348;50.948;10.696;2023-06-14T17:34:50;22.00;94.20
30572;DHT22;17348;50.948;10.696;2023-06-14T17:37:52;22.00;94.00
30572;DHT22;17348;50.948;10.696;2023-06-14T17:40:55;21.90;94.30
30572;DHT22;17348;50.948;10.696;2023-06-14T17:44:00;21.80;94.20
30572;DHT22;17348;50.948;10.696;2023-06-14T17:47:03;21.70;94.10
30572;DHT22;17348;50.948;10.696;2023-06-14T17:50:07;21.70;94.40
30572;DHT22;17348;50.948;10.696;2023-06-14T17:53:09;21.70;94.60
30572;DHT22;17348;50.948;10.696;2023-06-14T17:56:11;21.70;94.80
30572;DHT22;17348;50.948;10.696;2023-06-14T17:59:15;21.60;95.10
30572;DHT22;17348;50.948;10.696;2023-06-14T18:02:17;21.60;95.20
30572;DHT22;17348;50.948;10.696;2023-06-14T18:05:20;21.70;95.40
30572;DHT22;17348;50.948;10.696;2023-06-14T18:08:22;21.70;95.00
30572;DHT22;17348;50.948;10.696;2023-06-14T18:11:24;21.60;94.80
30572;DHT22;17348;50.948;10.696;2023-06-14T18:14:29;21.50;94.90
30572;DHT22;17348;50.948;10.696;2023-06-14T18:17:32;21.40;95.20
30572;DHT22;17348;50.948;10.696;2023-06-14T18:20:35;21.40;95.30
30572;DHT22;17348;50.948;10.696;2023-06-14T18:23:37;21.40;95.20
30572;DHT22;17348;50.948;10.696;2023-06-14T18:26:39;21.40;95.20
30572;DHT22;17348;50.948;10.696;2023-06-14T18:29:43;21.30;95.30
30572;DHT22;17348;50.948;10.696;2023-06-14T18:32:47;21.30;95.50
30572;DHT22;17348;50.948;10.696;2023-06-14T18:35:49;21.20;95.60
30572;DHT22;17348;50.948;10.696;2023-06-14T18:38:51;21.10;95.70
30572;DHT22;17348;50.948;10.696;2023-06-14T18:41:54;21.00;95.90
30572;DHT22;17348;50.948;10.696;2023-06-14T18:44:57;20.90;96.10
30572;DHT22;17348;50.948;10.696;2023-06-14T18:48:00;20.80;96.20
30572;DHT22;17348;50.948;10.696;2023-06-14T18:51:02;20.70;96.40
30572;DHT22;17348;50.948;10.696;2023-06-14T18:54:05;20.60;96.70
30572;DHT22;17348;50.948;10.696;2023-06-14T18:57:07;20.50;96.90
30572;DHT22;17348;50.948;10.696;2023-06-14T19:00:12;20.40;97.20